Time;durP1;ratioP1;P1;durP2;ratioP2;P2;SDS_P1;SDS_P2;PMS_P1;PMS_P2;Temp;Humidity;BMP_temperature;BMP_pressure;BME280_temperature;BME280_humidity;BME280_pressure;Samples;Min_cycle;Max_cycle;Signal;HPM_P1;HPM_P2
2021/03/20 00:01:45;;;;;;;5.00;3.03;;;;;;;1.37;64.64;99813.69;5111372;28;40705;-76
2021/03/20 00:04:14;;;;;;;2.73;2.43;;;;;;;1.31;64.68;99812.03;5093992;28;41862;-75
2021/03/20 00:06:44;;;;;;;2.40;2.20;;;;;;;1.26;64.58;99805.97;5094014;28;41301;-75
2021/03/20 00:09:14;;;;;;;3.10;2.30;;;;;;;1.22;64.84;99801.69;5111258;28;39546;-77
2021/03/20 00:11:43;;;;;;;2.50;2.17;;;;;;;1.19;64.87;99806.06;5110593;28;42425;-77
2021/03/20 00:14:15;;;;;;;2.70;2.50;;;;;;;1.11;65.04;99793.09;5093871;28;41726;-76
2021/03/20 00:16:42;;;;;;;2.63;2.40;;;;;;;1.17;65.18;99807.81;5112566;27;42153;-75
2021/03/20 00:19:09;;;;;;;3.13;2.63;;;;;;;1.17;64.93;99800.84;5110285;28;39848;-75
2021/03/20 00:21:36;;;;;;;3.70;2.80;;;;;;;1.12;64.92;99796.53;5110926;28;40652;-76
2021/03/20 00:24:04;;;;;;;4.50;2.70;;;;;;;1.10;65.27;99793.97;5093516;28;42585;-76
2021/03/20 00:26:32;;;;;;;5.20;2.63;;;;;;;1.07;64.71;99799.22;5110869;28;42928;-78
2021/03/20 00:28:59;;;;;;;3.20;2.23;;;;;;;1.18;64.70;99806.94;5109761;28;40745;-77
2021/03/20 00:31:27;;;;;;;2.33;2.13;;;;;;;1.18;64.71;99817.38;5111757;27;42479;-76
2021/03/20 00:33:54;;;;;;;3.30;2.30;;;;;;;1.10;65.19;99800.94;5093750;28;41851;-77
2021/03/20 00:36:21;;;;;;;3.97;2.50;;;;;;;1.13;64.48;99809.56;5111160;27;42991;-77
2021/03/20 00:39:47;;;;;;;;;;;;;;;;;;;;;
2021/03/20 00:42:35;;;;;;;4.17;2.67;;;;;;;0.80;64.47;99766.41;5076859;28;43309;-76
2021/03/20 00:45:03;;;;;;;2.90;2.13;;;;;;;0.95;64.68;99809.75;5110007;28;43281;-76
2021/03/20 00:47:32;;;;;;;4.63;2.63;;;;;;;0.96;64.79;99808.88;5098593;28;42698;-76
2021/03/20 00:49:59;;;;;;;3.37;2.43;;;;;;;0.89;64.77;99815.88;5073257;28;39921;-76
2021/03/20 00:52:26;;;;;;;2.83;2.43;;;;;;;0.78;64.87;99801.19;5089931;28;41514;-75
2021/03/20 00:54:53;;;;;;;3.43;2.87;;;;;;;0.78;65.04;99809.88;5089864;28;42354;-76
2021/03/20 00:57:20;;;;;;;3.37;2.37;;;;;;;0.73;65.01;99806.47;5089161;28;43090;-76
2021/03/20 00:59:48;;;;;;;3.03;2.77;;;;;;;0.64;65.24;99799.56;5089962;28;41412;-77
2021/03/20 01:02:15;;;;;;;3.03;2.77;;;;;;;0.63;65.52;99803.03;5105434;28;42160;-75
2021/03/20 01:04:43;;;;;;;2.63;2.43;;;;;;;0.56;65.71;99806.56;5110149;28;41819;-75
2021/03/20 01:07:11;;;;;;;4.73;2.70;;;;;;;0.45;65.87;99781.47;5110171;28;42465;-76
2021/03/20 01:09:38;;;;;;;4.03;2.40;;;;;;;0.40;65.95;99788.44;5109846;28;40516;-76
2021/03/20 01:12:06;;;;;;;4.27;2.83;;;;;;;0.43;65.98;99804.94;5092740;28;40599;-76
2021/03/20 01:14:33;;;;;;;3.17;2.60;;;;;;;0.32;66.54;99793.72;5110022;28;43549;-75
2021/03/20 01:17:01;;;;;;;2.80;2.40;;;;;;;0.37;66.76;99801.50;5092830;28;41786;-75
2021/03/20 01:19:28;;;;;;;3.47;2.90;;;;;;;0.31;66.50;99800.66;5109731;28;39734;-76
2021/03/20 01:21:56;;;;;;;3.33;2.80;;;;;;;0.15;66.79;99783.38;5109387;28;42109;-75
2021/03/20 01:24:23;;;;;;;2.67;2.47;;;;;;;0.31;66.55;99813.69;5110738;27;42808;-75
2021/03/20 01:26:50;;;;;;;3.70;3.07;;;;;;;0.22;66.75;99811.16;5110618;27;42959;-76
2021/03/20 01:29:17;;;;;;;2.97;2.47;;;;;;;0.25;66.56;99821.53;5092966;28;38883;-77
2021/03/20 01:31:45;;;;;;;3.70;3.07;;;;;;;0.11;66.43;99799.94;5093043;28;40711;-75
2021/03/20 01:34:12;;;;;;;4.70;2.93;;;;;;;0.18;66.52;99822.44;5092798;28;42692;-76
2021/03/20 01:36:39;;;;;;;2.90;2.53;;;;;;;0.14;66.65;99823.31;5111117;27;42510;-75
2021/03/20 01:39:07;;;;;;;2.70;2.50;;;;;;;-0.03;66.58;99794.78;5109523;28;39991;-76
2021/03/20 01:41:35;;;;;;;3.30;3.00;;;;;;;-0.04;66.51;99805.19;5109812;28;41364;-76
2021/03/20 01:44:02;;;;;;;2.77;2.53;;;;;;;0.05;66.58;99823.38;5109511;28;41711;-75
2021/03/20 01:46:38;;;;;;;4.33;2.80;;;;;;;0.02;66.82;99832.94;5092594;27;42184;-76
2021/03/20 01:49:16;;;;;;;3.73;3.17;;;;;;;-0.18;66.67;99807.00;5095788;28;40315;-75
2021/03/20 01:51:44;;;;;;;5.03;2.97;;;;;;;-0.33;66.97;99787.09;5093068;28;41690;-77
2021/03/20 01:54:12;;;;;;;3.70;3.30;;;;;;;-0.14;66.91;99829.56;5091784;28;41640;-75
2021/03/20 01:56:44;;;;;;;5.40;2.90;;;;;;;-0.09;66.57;99838.19;5109311;28;42602;-75
2021/03/20 01:59:14;;;;;;;3.20;2.90;;;;;;;-0.11;66.45;99837.31;5092558;28;39813;-75
2021/03/20 02:01:41;;;;;;;3.90;2.90;;;;;;;-0.12;66.66;99835.59;5087053;28;41059;-76
2021/03/20 02:04:09;;;;;;;2.90;2.70;;;;;;;-0.18;66.58;99830.41;5112207;28;42744;-76
2021/03/20 02:06:36;;;;;;;4.23;3.03;;;;;;;-0.16;66.72;99833.91;5117288;28;42251;-75
2021/03/20 02:09:07;;;;;;;3.23;2.93;;;;;;;-0.16;66.58;99831.28;5133090;28;40092;-76
2021/03/20 02:11:44;;;;;;;5.23;3.60;;;;;;;-0.18;66.47;99826.09;5135211;27;42428;-76
2021/03/20 02:14:22;;;;;;;4.17;2.90;;;;;;;-0.20;66.37;99832.16;5117714;28;41693;-77
2021/03/20 02:17:12;;;;;;;3.20;2.90;;;;;;;-0.40;66.45;99795.81;5135637;28;41006;-76
2021/03/20 02:24:57;;;;;;;3.33;2.73;;;;;;;-0.28;66.55;99833.94;4949404;28;43389;-75
2021/03/20 02:28:04;;;;;;;4.20;2.47;;;;;;;-0.31;66.96;99823.53;5051946;28;42746;-75
2021/03/20 02:31:11;;;;;;;3.00;2.60;;;;;;;-0.32;66.91;99821.78;5085514;28;42368;-75
2021/03/20 02:33:55;;;;;;;4.07;3.17;;;;;;;-0.32;66.61;99827.00;5091870;28;39752;-75
2021/03/20 02:36:31;;;;;;;4.07;2.97;;;;;;;-0.75;66.89;99759.50;5093335;28;41605;-75
2021/03/20 02:39:06;;;;;;;7.50;3.10;;;;;;;-0.31;66.67;99842.63;5108902;28;42454;-75
2021/03/20 02:41:42;;;;;;;3.70;2.97;;;;;;;-0.31;66.54;99844.34;5108235;28;42594;-75
2021/03/20 02:44:15;;;;;;;3.17;2.87;;;;;;;-0.31;66.40;99854.75;5108742;28;41374;-75
2021/03/20 02:46:49;;;;;;;2.63;2.37;;;;;;;-0.29;66.23;99859.09;5091832;28;41079;-74
2021/03/20 02:49:26;;;;;;;5.17;2.83;;;;;;;-0.30;66.15;99851.28;5092834;28;42754;-75
2021/03/20 02:52:02;;;;;;;3.40;2.40;;;;;;;-0.29;66.10;99863.44;5092898;28;42759;-75
2021/03/20 02:54:37;;;;;;;2.73;2.37;;;;;;;-0.28;65.98;99870.38;5094913;28;39289;-75
2021/03/20 02:57:09;;;;;;;2.30;2.00;;;;;;;-0.33;65.46;99892.94;5112933;27;42463;-76
2021/03/20 02:59:40;;;;;;;3.53;1.63;;;;;;;-0.37;65.15;99886.84;5111936;27;43391;-75
2021/03/20 03:02:11;;;;;;;1.90;1.80;;;;;;;-0.31;64.69;99875.56;5111332;28;43215;-75
2021/03/20 03:04:43;;;;;;;3.70;2.00;;;;;;;-0.57;64.33;99842.69;5111209;28;39222;-75
2021/03/20 03:07:16;;;;;;;5.17;1.60;;;;;;;-0.48;64.11;99853.06;5111747;28;40635;-75
2021/03/20 03:09:48;;;;;;;3.67;1.80;;;;;;;-0.36;63.37;99868.63;5094982;28;43138;-75
2021/03/20 03:12:19;;;;;;;3.83;1.63;;;;;;;-0.33;63.52;99880.78;5111364;28;43075;-75
2021/03/20 03:14:52;;;;;;;2.47;1.60;;;;;;;-0.30;63.36;99872.97;5146343;27;40021;-75
2021/03/20 03:17:22;;;;;;;2.43;1.50;;;;;;;-0.34;63.18;99871.25;5094596;28;40755;-74
2021/03/20 03:19:53;;;;;;;2.40;1.50;;;;;;;-0.42;63.38;99873.00;5111305;28;43109;-76
2021/03/20 03:22:24;;;;;;;3.87;1.93;;;;;;;-0.46;62.91;99872.13;5111670;28;40880;-75
2021/03/20 03:24:56;;;;;;;3.93;2.00;;;;;;;-0.50;63.03;99852.22;5094785;28;38911;-75
2021/03/20 03:27:25;;;;;;;2.13;1.87;;;;;;;-0.52;62.65;99859.16;5111131;28;41761;-75
2021/03/20 03:29:52;;;;;;;3.00;1.53;;;;;;;-0.54;63.07;99852.22;5111616;28;41713;-75
2021/03/20 03:32:24;;;;;;;3.20;1.80;;;;;;;-0.57;62.77;99871.28;5111038;28;42896;-75
2021/03/20 03:35:00;;;;;;;2.10;1.53;;;;;;;-0.62;62.54;99867.84;5112601;27;41585;-76
2021/03/20 03:37:35;;;;;;;4.80;1.50;;;;;;;-0.76;62.61;99848.78;5112463;27;41909;-75
2021/03/20 03:40:06;;;;;;;4.50;1.97;;;;;;;-0.71;62.49;99880.84;5094465;28;42689;-75
2021/03/20 03:42:34;;;;;;;3.00;1.70;;;;;;;-0.76;63.13;99882.59;5112420;27;42306;-75
2021/03/20 03:45:01;;;;;;;3.10;2.40;;;;;;;-0.79;62.81;99887.78;5094419;28;39783;-76
2021/03/20 03:47:30;;;;;;;2.47;1.63;;;;;;;-0.90;63.08;99873.94;5111181;28;40902;-75
2021/03/20 03:50:08;;;;;;;2.50;1.60;;;;;;;-0.90;63.36;99884.34;5128131;27;42979;-75
2021/03/20 03:52:35;;;;;;;3.13;2.00;;;;;;;-0.93;63.40;99890.41;5110737;28;41987;-75
2021/03/20 03:55:03;;;;;;;5.20;1.83;;;;;;;-0.93;63.62;99894.72;5111067;28;39959;-76
2021/03/20 03:58:06;;;;;;;3.57;2.00;;;;;;;-0.97;63.51;99892.97;5111815;27;42328;-75
2021/03/20 04:00:39;;;;;;;3.03;2.17;;;;;;;-1.08;63.67;99878.25;5110968;28;42701;-75
2021/03/20 04:03:47;;;;;;;2.07;1.77;;;;;;;-1.05;63.61;99881.72;5110345;28;42949;-76
2021/03/20 04:06:24;;;;;;;2.67;1.90;;;;;;;-1.09;63.73;99879.13;5109986;28;40320;-75
2021/03/20 04:09:01;;;;;;;2.60;2.13;;;;;;;-1.14;63.97;99885.19;5109812;28;41641;-75
2021/03/20 04:11:34;;;;;;;3.63;2.03;;;;;;;-1.18;63.82;99907.72;5109540;27;42755;-75
2021/03/20 04:14:06;;;;;;;2.90;2.37;;;;;;;-1.23;63.89;99909.41;5111773;27;42038;-76
2021/03/20 04:16:41;;;;;;;2.40;2.20;;;;;;;-1.23;63.97;99919.81;5093865;28;39427;-75
2021/03/20 04:19:17;;;;;;;2.40;2.20;;;;;;;-1.40;63.96;99887.75;5110021;28;42167;-75
2021/03/20 04:21:50;;;;;;;3.03;2.20;;;;;;;-1.34;64.23;99903.34;5093517;28;42747;-76
2021/03/20 04:24:23;;;;;;;3.27;2.20;;;;;;;-1.39;64.33;99892.09;5093470;28;41237;-76
2021/03/20 04:26:55;;;;;;;2.40;2.20;;;;;;;-1.37;64.21;99897.28;5110036;28;41306;-74
2021/03/20 04:29:34;;;;;;;5.03;2.50;;;;;;;-1.40;64.20;99892.94;5093794;28;41068;-74
2021/03/20 04:32:06;;;;;;;3.83;2.90;;;;;;;-1.43;63.87;99900.72;5109944;28;43398;-75
2021/03/20 04:34:41;;;;;;;3.60;2.83;;;;;;;-1.57;64.11;99889.44;5109609;28;43039;-75
2021/03/20 04:37:11;;;;;;;4.40;2.73;;;;;;;-1.53;64.18;99901.56;5110198;28;40626;-75
2021/03/20 04:39:42;;;;;;;3.10;2.73;;;;;;;-1.50;64.11;99909.38;5093619;28;40639;-75
2021/03/20 04:42:11;;;;;;;5.53;2.97;;;;;;;-1.50;64.15;99922.38;5092943;28;43000;-75
2021/03/20 04:44:39;;;;;;;2.90;2.60;;;;;;;-1.53;64.27;99918.03;5111267;27;42250;-75
2021/03/20 04:47:13;;;;;;;3.50;2.47;;;;;;;-1.54;64.69;99905.03;5093051;28;39826;-74
2021/03/20 04:49:45;;;;;;;3.97;3.00;;;;;;;-1.57;64.66;99910.22;5109267;28;41558;-75
2021/03/20 04:52:17;;;;;;;3.20;2.40;;;;;;;-1.58;64.70;99898.06;5093234;28;42824;-75
2021/03/20 04:54:44;;;;;;;2.47;2.27;;;;;;;-1.59;64.86;99914.53;5110167;28;42025;-76
2021/03/20 04:57:23;;;;;;;4.83;2.70;;;;;;;-1.71;64.97;99891.13;5109764;28;39956;-75
2021/03/20 05:00:01;;;;;;;3.67;2.50;;;;;;;-1.75;65.27;99884.19;5109752;28;42162;-75
2021/03/20 05:02:34;;;;;;;5.03;3.00;;;;;;;-1.64;64.85;99898.94;5109347;28;43319;-75
2021/03/20 05:05:08;;;;;;;3.23;2.60;;;;;;;-1.79;65.30;99869.47;5109669;28;42168;-76
2021/03/20 05:07:37;;;;;;;5.10;2.50;;;;;;;-1.62;65.36;99891.16;5111464;27;40745;-75
2021/03/20 05:10:15;;;;;;;3.83;3.13;;;;;;;-1.52;65.01;99900.72;5109766;28;41709;-76
2021/03/20 05:12:42;;;;;;;3.23;2.40;;;;;;;-1.48;65.22;99905.03;5092823;28;43153;-74
2021/03/20 05:15:23;;;;;;;4.13;2.77;;;;;;;-1.46;64.93;99919.75;5110595;27;42627;-75
2021/03/20 05:17:51;;;;;;;3.03;2.27;;;;;;;-1.42;64.72;99919.78;5092860;28;39930;-75
2021/03/20 05:20:18;;;;;;;4.10;2.53;;;;;;;-1.44;64.74;99917.16;5109003;28;42410;-75
2021/03/20 05:22:46;;;;;;;4.97;2.30;;;;;;;-1.42;64.41;99925.84;5093531;28;43063;-75
2021/03/20 05:25:15;;;;;;;4.63;2.00;;;;;;;-1.41;64.61;99921.50;5114361;27;42225;-75
2021/03/20 05:27:43;;;;;;;3.30;2.40;;;;;;;-1.38;64.48;99926.72;5113220;28;39687;-75
2021/03/20 05:30:11;;;;;;;3.90;2.23;;;;;;;-1.36;64.25;99925.00;5114488;27;42405;-75
2021/03/20 05:32:39;;;;;;;4.13;1.93;;;;;;;-1.34;64.03;99934.50;5147245;27;43477;-75
2021/03/20 05:35:12;;;;;;;5.07;2.40;;;;;;;-1.27;63.82;99941.47;5113090;28;42353;-75
2021/03/20 05:37:41;;;;;;;4.47;2.20;;;;;;;-1.23;63.74;99953.59;5096194;28;40043;-75
2021/03/20 05:40:19;;;;;;;5.07;2.00;;;;;;;-1.16;63.33;99960.56;5114153;27;41779;-75
2021/03/20 05:43:20;;;;;;;2.80;1.80;;;;;;;-1.10;63.08;99963.16;5112700;28;42766;-75
2021/03/20 05:46:01;;;;;;;3.07;1.77;;;;;;;-1.02;62.52;99970.13;5063512;28;41201;-75
2021/03/20 05:48:33;;;;;;;2.03;1.70;;;;;;;-0.90;62.09;99978.81;5092063;28;39965;-75
2021/03/20 05:51:21;;;;;;;4.03;1.90;;;;;;;-0.83;61.69;99984.88;5093598;28;42349;-74
2021/03/20 05:54:16;;;;;;;2.03;1.57;;;;;;;-0.73;61.31;99992.69;5092440;28;43509;-75
2021/03/20 05:56:56;;;;;;;3.30;1.60;;;;;;;-0.70;61.10;99981.41;5127769;27;42731;-76
2021/03/20 05:59:32;;;;;;;3.90;1.77;;;;;;;-0.67;60.74;99989.22;5094281;28;40255;-75
2021/03/20 06:02:14;;;;;;;2.73;1.77;;;;;;;-0.48;60.87;99996.16;5113913;27;41726;-74
2021/03/20 06:04:44;;;;;;;3.23;2.00;;;;;;;-0.39;60.05;100004.00;5112223;28;43409;-76
2021/03/20 06:07:47;;;;;;;3.97;1.87;;;;;;;-0.28;59.94;99995.31;5146644;27;44110;-75
2021/03/20 06:10:36;;;;;;;1.90;1.43;;;;;;;-0.22;59.55;99998.75;5129519;27;39947;-76
2021/03/20 06:13:28;;;;;;;5.00;1.70;;;;;;;-0.13;59.55;100005.72;5113283;27;41464;-75
2021/03/20 06:16:06;;;;;;;2.40;1.30;;;;;;;-0.24;58.42;100007.44;5112553;27;43431;-75
2021/03/20 06:19:03;;;;;;;1.83;1.47;;;;;;;-0.08;58.11;100009.16;5112726;28;42118;-75
2021/03/20 06:21:42;;;;;;;4.33;1.53;;;;;;;0.04;58.17;100021.28;5095433;28;39143;-75
2021/03/20 06:24:54;;;;;;;2.80;1.80;;;;;;;0.23;58.23;100021.28;5112454;28;41993;-75
2021/03/20 06:27:24;;;;;;;2.30;1.67;;;;;;;0.41;58.10;100024.69;5112460;28;42621;-76
2021/03/20 06:29:58;;;;;;;4.80;2.07;;;;;;;0.51;57.78;100031.59;5112196;28;42556;-76
2021/03/20 06:32:31;;;;;;;3.80;2.07;;;;;;;0.60;56.90;100035.06;5095297;28;40189;-75
2021/03/20 06:35:02;;;;;;;2.07;1.70;;;;;;;0.51;56.47;100031.59;5145352;27;42452;-77
2021/03/20 06:37:32;;;;;;;2.87;1.77;;;;;;;0.79;56.61;100041.06;5109592;28;43229;-75
2021/03/20 06:40:04;;;;;;;3.77;2.07;;;;;;;0.87;55.69;100054.91;5111495;28;41923;-76
2021/03/20 06:42:34;;;;;;;4.07;1.73;;;;;;;0.97;55.54;100054.03;5111714;28;39923;-75
2021/03/20 06:45:06;;;;;;;3.80;1.90;;;;;;;1.07;55.58;100058.31;5111300;28;42327;-76
2021/03/20 06:47:35;;;;;;;2.23;1.93;;;;;;;1.23;55.80;100055.63;5094783;28;42770;-75
2021/03/20 06:50:08;;;;;;;2.70;1.97;;;;;;;1.13;53.77;100053.94;5111594;28;41135;-75
2021/03/20 06:52:37;;;;;;;4.53;1.83;;;;;;;1.48;54.50;100052.00;5111137;28;39777;-75
2021/03/20 06:55:09;;;;;;;2.00;1.80;;;;;;;1.71;54.05;100065.75;5112204;27;41613;-75
2021/03/20 06:57:36;;;;;;;3.43;1.90;;;;;;;1.83;52.47;100076.97;5111437;28;42671;-75
2021/03/20 07:00:20;;;;;;;3.20;1.90;;;;;;;1.95;52.40;100080.38;5111436;28;42260;-76
2021/03/20 07:02:59;;;;;;;3.83;2.00;;;;;;;2.10;52.12;100095.06;5110116;27;40962;-75
2021/03/20 07:05:31;;;;;;;3.27;2.20;;;;;;;2.23;51.65;100101.88;5111960;27;41764;-75
2021/03/20 07:08:13;;;;;;;2.83;1.90;;;;;;;2.47;51.30;100106.03;5110836;27;42888;-77
2021/03/20 07:10:43;;;;;;;4.40;2.47;;;;;;;2.79;51.52;100093.47;5107814;28;42217;-76
2021/03/20 07:13:21;;;;;;;2.80;2.10;;;;;;;3.02;50.14;100103.66;5090751;28;40199;-75
2021/03/20 07:16:06;;;;;;;1.93;1.77;;;;;;;3.22;49.47;100116.50;5108077;28;41609;-75
2021/03/20 07:18:38;;;;;;;2.77;2.07;;;;;;;3.17;49.52;100116.56;5101678;28;42425;-75
2021/03/20 07:21:31;;;;;;;6.83;2.43;;;;;;;3.17;49.91;100084.28;5107722;28;42195;-75
2021/03/20 07:24:02;;;;;;;28.83;16.97;;;;;;;3.12;49.36;100075.63;5107011;28;38981;-76
2021/03/20 07:26:32;;;;;;;7.73;5.00;;;;;;;3.23;49.63;100099.91;5106774;28;40670;-75
2021/03/20 07:29:01;;;;;;;2.93;2.30;;;;;;;3.31;49.54;100105.94;5108100;28;42207;-76
2021/03/20 07:31:30;;;;;;;3.33;2.43;;;;;;;3.50;46.95;100093.44;5107952;28;42461;-76
2021/03/20 07:34:14;;;;;;;5.00;2.50;;;;;;;5.01;45.93;100141.59;5109298;27;39713;-76
2021/03/20 07:36:41;;;;;;;3.83;2.07;;;;;;;8.02;40.75;100170.81;5109538;27;41756;-76
2021/03/20 07:39:17;;;;;;;3.07;2.10;;;;;;;10.81;35.22;100198.50;5108236;27;42803;-77
2021/03/20 07:41:53;;;;;;;2.33;1.83;;;;;;;13.58;33.45;100203.88;5106662;27;42670;-78
2021/03/20 07:44:21;;;;;;;3.20;2.10;;;;;;;15.97;29.95;100229.94;5107767;27;39966;-77
2021/03/20 07:46:50;;;;;;;2.27;1.83;;;;;;;17.09;25.40;100237.78;5105819;28;42354;-78
2021/03/20 07:49:26;;;;;;;2.00;1.80;;;;;;;17.69;24.62;100264.91;5107601;28;43178;-77
2021/03/20 07:51:56;;;;;;;2.63;1.83;;;;;;;19.14;24.11;100246.34;5108017;27;42466;-78
2021/03/20 07:54:29;;;;;;;2.30;1.90;;;;;;;19.56;23.58;100248.44;5105828;28;41441;-78
2021/03/20 07:57:08;;;;;;;3.07;1.70;;;;;;;20.79;21.28;100267.28;5107421;28;42349;-78
2021/03/20 07:59:41;;;;;;;2.27;1.67;;;;;;;20.74;20.53;100269.50;5108602;28;42995;-79
2021/03/20 08:02:25;;;;;;;1.97;1.77;;;;;;;20.48;19.72;100274.31;5106685;28;41032;-78
2021/03/20 08:04:56;;;;;;;2.17;1.87;;;;;;;18.56;21.04;100256.00;5107121;28;40638;-78
2021/03/20 08:07:42;;;;;;;2.70;1.80;;;;;;;16.30;22.18;100259.06;5107488;28;40671;-77
2021/03/20 08:10:17;;;;;;;3.07;1.80;;;;;;;14.92;24.49;100217.66;5108406;27;43534;-77
2021/03/20 08:13:22;;;;;;;3.20;2.40;;;;;;;13.81;25.50;100231.91;5102590;28;42326;-78
2021/03/20 08:15:53;;;;;;;2.43;2.07;;;;;;;12.77;28.22;100225.75;5105748;28;40100;-77
2021/03/20 08:18:28;;;;;;;3.43;2.17;;;;;;;12.15;28.13;100185.38;5107088;28;41863;-77
2021/03/20 08:21:37;;;;;;;3.20;2.40;;;;;;;11.71;29.42;100207.81;5106416;28;42239;-77
2021/03/20 08:24:30;;;;;;;3.77;2.23;;;;;;;11.40;29.97;100197.69;5103801;28;41856;-77
2021/03/20 08:27:04;;;;;;;3.97;2.30;;;;;;;11.20;30.45;100192.41;5105895;28;38950;-78
2021/03/20 08:30:10;;;;;;;2.67;2.27;;;;;;;11.37;31.25;100189.91;5105913;28;41509;-77
2021/03/20 08:33:09;;;;;;;2.93;2.00;;;;;;;11.78;30.27;100193.34;5084950;28;42706;-76
2021/03/20 08:35:47;;;;;;;2.43;2.20;;;;;;;11.90;30.35;100190.13;5107160;28;42029;-78
2021/03/20 08:38:35;;;;;;;1.93;1.80;;;;;;;12.23;29.98;100166.44;5105328;28;39193;-78
2021/03/20 08:41:08;;;;;;;2.53;2.03;;;;;;;12.57;29.60;100177.13;5086745;28;41697;-77
2021/03/20 08:44:03;;;;;;;2.33;2.10;;;;;;;12.83;28.87;100206.88;5107748;28;42693;-78
2021/03/20 08:46:49;;;;;;;2.30;2.10;;;;;;;13.03;29.13;100193.41;5106862;28;42716;-78
2021/03/20 08:49:25;;;;;;;3.97;2.10;;;;;;;13.42;28.03;100213.59;5107800;28;39999;-77
2021/03/20 08:52:00;;;;;;;3.20;2.00;;;;;;;13.38;28.04;100212.03;5106865;28;40796;-77
2021/03/20 08:54:45;;;;;;;3.93;2.20;;;;;;;13.32;28.43;100197.25;5108690;27;42696;-77
2021/03/20 08:57:22;;;;;;;3.43;1.93;;;;;;;13.26;27.89;100219.72;5089712;28;42080;-77
2021/03/20 08:59:52;;;;;;;2.40;2.07;;;;;;;13.42;28.49;100213.59;5107438;28;39472;-78
2021/03/20 09:02:33;;;;;;;2.13;1.93;;;;;;;13.55;27.89;100212.88;5111212;27;42801;-76
2021/03/20 09:05:09;;;;;;;2.67;1.90;;;;;;;13.53;26.55;100225.41;5110100;28;43214;-78
2021/03/20 09:07:44;;;;;;;2.83;1.90;;;;;;;13.94;27.92;100232.97;5111200;27;42945;-76
2021/03/20 09:10:18;;;;;;;2.90;2.10;;;;;;;14.43;26.63;100231.16;5110080;28;40037;-77
2021/03/20 09:12:50;;;;;;;3.20;2.10;;;;;;;14.91;26.39;100221.28;5109800;28;40646;-76
2021/03/20 09:15:25;;;;;;;3.00;2.50;;;;;;;15.19;26.46;100226.72;5093409;28;41824;-78
2021/03/20 09:17:55;;;;;;;2.43;2.23;;;;;;;17.46;24.45;100234.31;5110125;28;42425;-79
2021/03/20 09:20:35;;;;;;;2.33;2.10;;;;;;;18.65;21.70;100239.28;5109965;28;38919;-76
2021/03/20 09:23:05;;;;;;;2.40;1.90;;;;;;;19.27;21.17;100249.81;5111332;27;42588;-77
2021/03/20 09:25:36;;;;;;;2.20;2.00;;;;;;;20.32;21.62;100253.13;5109732;28;43022;-77
2021/03/20 09:28:11;;;;;;;2.50;2.30;;;;;;;21.56;19.04;100273.38;5110032;28;42119;-77
2021/03/20 09:30:43;;;;;;;4.20;3.47;;;;;;;20.74;19.42;100288.34;5144395;27;39791;-78
2021/03/20 09:33:32;;;;;;;2.50;2.27;;;;;;;21.11;19.06;100289.72;5110031;28;42431;-78
2021/03/20 09:36:01;;;;;;;2.93;1.90;;;;;;;21.74;17.50;100304.16;5109523;28;42940;-77
2021/03/20 09:38:49;;;;;;;1.80;1.60;;;;;;;21.83;18.92;100281.78;5123617;27;42153;-78
2021/03/20 09:41:40;;;;;;;2.00;1.90;;;;;;;21.99;19.70;100272.41;5113409;27;40804;-77
2021/03/20 09:44:23;;;;;;;3.03;2.37;;;;;;;21.15;19.22;100248.03;5103907;27;41698;-78
2021/03/20 09:46:53;;;;;;;3.57;2.10;;;;;;;21.32;19.69;100260.13;5108765;28;42876;-78
2021/03/20 09:49:57;;;;;;;3.07;2.30;;;;;;;22.16;18.48;100261.81;5109720;28;41964;-79
2021/03/20 09:52:52;;;;;;;2.97;2.53;;;;;;;22.31;18.10;100259.59;5107964;28;40768;-78
2021/03/20 09:55:41;;;;;;;2.80;1.80;;;;;;;22.91;17.04;100268.59;5108644;27;41962;-76
2021/03/20 09:58:39;;;;;;;3.27;2.27;;;;;;;22.10;18.78;100262.38;5109004;28;43429;-78
2021/03/20 10:01:09;;;;;;;2.47;2.00;;;;;;;22.27;16.80;100279.75;5109556;28;41359;-77
2021/03/20 10:03:38;;;;;;;4.13;2.23;;;;;;;21.38;19.17;100256.06;5109536;28;39744;-76
2021/03/20 10:06:17;;;;;;;3.30;2.40;;;;;;;20.74;18.53;100253.34;5110237;27;41753;-78
2021/03/20 10:08:46;;;;;;;4.47;2.20;;;;;;;21.44;19.27;100252.84;5110549;27;42536;-77
2021/03/20 10:11:31;;;;;;;3.27;2.03;;;;;;;22.20;18.49;100262.41;5111340;28;42592;-77
2021/03/20 10:13:59;;;;;;;3.83;2.70;;;;;;;23.03;17.72;100275.56;5113049;28;40094;-78
2021/03/20 10:16:31;;;;;;;2.33;1.70;;;;;;;23.01;18.31;100257.78;5112883;28;41527;-76
2021/03/20 10:19:09;;;;;;;2.37;2.13;;;;;;;22.11;18.59;100257.81;5113281;28;41713;-76
2021/03/20 10:21:37;;;;;;;2.37;2.17;;;;;;;21.44;18.51;100267.19;5113726;27;42116;-77
2021/03/20 10:24:19;;;;;;;3.40;2.37;;;;;;;21.30;19.01;100263.94;5112807;28;38653;-77
2021/03/20 10:26:56;;;;;;;2.20;2.00;;;;;;;22.31;18.51;100259.59;5112669;28;42052;-76
2021/03/20 10:29:27;;;;;;;3.67;2.47;;;;;;;23.71;17.67;100272.91;5112239;28;42645;-78
2021/03/20 10:32:04;;;;;;;2.40;2.20;;;;;;;25.15;17.27;100266.81;5113400;27;42782;-76
2021/03/20 10:34:48;;;;;;;2.17;1.97;;;;;;;26.28;15.76;100269.59;5113064;28;39921;-77
2021/03/20 10:37:15;;;;;;;2.63;2.27;;;;;;;25.68;16.25;100264.09;5113594;27;40942;-77
2021/03/20 10:39:44;;;;;;;2.90;2.60;;;;;;;25.58;16.27;100262.47;5112712;28;41766;-76
2021/03/20 10:42:18;;;;;;;3.67;2.40;;;;;;;25.76;15.03;100276.88;5119468;27;43423;-78
2021/03/20 10:44:50;;;;;;;3.00;2.70;;;;;;;25.69;14.18;100286.66;5125891;27;40299;-77
2021/03/20 10:47:26;;;;;;;2.53;2.33;;;;;;;26.16;15.06;100270.84;5126438;27;41817;-78
2021/03/20 10:49:57;;;;;;;2.80;2.50;;;;;;;27.83;14.04;100276.22;5124516;28;42755;-77
2021/03/20 10:52:30;;;;;;;2.80;2.60;;;;;;;28.52;13.37;100282.88;5126098;27;42715;-78
2021/03/20 10:55:02;;;;;;;2.47;2.20;;;;;;;28.11;13.71;100277.53;5124068;27;40543;-77
2021/03/20 10:57:32;;;;;;;2.20;2.10;;;;;;;28.88;13.30;100262.28;5095186;28;40602;-79
2021/03/20 10:59:59;;;;;;;2.40;2.20;;;;;;;26.99;14.22;100273.75;5113521;27;42248;-77
2021/03/20 11:02:34;;;;;;;2.20;2.00;;;;;;;24.98;14.51;100275.78;5112226;28;42320;-76
2021/03/20 11:05:30;;;;;;;2.80;2.60;;;;;;;26.70;13.12;100283.19;5114473;27;40028;-78
2021/03/20 11:08:00;;;;;;;2.47;2.27;;;;;;;28.47;13.38;100268.91;5103423;28;40611;-78
2021/03/20 11:10:32;;;;;;;2.60;2.37;;;;;;;30.16;13.06;100235.97;5112692;27;43106;-76
2021/03/20 11:13:26;;;;;;;2.90;2.27;;;;;;;31.01;11.97;100262.72;5111454;28;42287;-78
2021/03/20 11:16:05;;;;;;;2.43;2.30;;;;;;;31.86;10.14;100251.78;5113104;27;39992;-78
2021/03/20 11:18:36;;;;;;;2.70;2.40;;;;;;;31.53;11.22;100273.38;5091513;28;41842;-79
2021/03/20 11:21:22;;;;;;;3.27;2.80;;;;;;;31.00;12.08;100264.63;5072433;28;42978;-78
2021/03/20 11:23:58;;;;;;;3.23;2.83;;;;;;;30.99;11.14;100262.06;5072175;28;41816;-78
2021/03/20 11:26:38;;;;;;;2.80;2.43;;;;;;;32.05;10.65;100270.25;5088451;28;39943;-79
2021/03/20 11:29:10;;;;;;;4.10;2.70;;;;;;;32.95;10.84;100257.44;5073683;28;41617;-79
2021/03/20 11:31:46;;;;;;;2.23;2.13;;;;;;;32.15;11.56;100244.38;5100790;28;43310;-78
2021/03/20 11:34:22;;;;;;;2.60;2.40;;;;;;;31.23;11.83;100239.81;5094564;28;41679;-77
2021/03/20 11:36:50;;;;;;;3.20;2.90;;;;;;;31.94;11.03;100248.03;5110787;28;39983;-76
2021/03/20 11:39:18;;;;;;;2.83;2.63;;;;;;;32.92;11.20;100225.75;5111383;28;41092;-78
2021/03/20 11:41:46;;;;;;;2.83;2.63;;;;;;;33.85;10.18;100244.06;5110057;28;42675;-77
2021/03/20 11:44:23;;;;;;;2.67;2.47;;;;;;;33.01;10.54;100234.66;5110661;28;42134;-77
2021/03/20 11:46:53;;;;;;;2.70;2.50;;;;;;;30.68;11.40;100226.75;5110141;28;39248;-78
2021/03/20 11:49:37;;;;;;;3.00;2.37;;;;;;;29.35;11.27;100203.94;5109045;28;40512;-77
2021/03/20 11:52:08;;;;;;;2.93;2.60;;;;;;;28.80;13.02;100199.59;5092376;28;41908;-78
2021/03/20 11:54:38;;;;;;;2.90;2.70;;;;;;;29.08;12.39;100213.53;5110921;27;42879;-76
2021/03/20 11:57:28;;;;;;;3.37;2.97;;;;;;;30.03;12.24;100199.41;5108421;28;39027;-78
2021/03/20 11:59:55;;;;;;;2.80;2.50;;;;;;;31.03;10.35;100214.13;5109700;28;42449;-78
2021/03/20 12:02:39;;;;;;;2.93;2.63;;;;;;;31.94;10.80;100198.69;5109999;27;43419;-78
2021/03/20 12:05:28;;;;;;;2.80;2.60;;;;;;;32.60;8.56;100221.84;5110594;27;42222;-77
2021/03/20 12:08:28;;;;;;;2.20;2.10;;;;;;;31.94;9.54;100210.50;5100808;28;39569;-78
2021/03/20 12:10:58;;;;;;;2.57;2.37;;;;;;;30.81;10.09;100193.25;5108857;28;41410;-78
2021/03/20 12:13:47;;;;;;;2.93;2.40;;;;;;;29.72;10.73;100203.09;5109137;28;41730;-77
2021/03/20 12:16:29;;;;;;;3.10;2.27;;;;;;;29.24;11.00;100196.19;5093098;28;42117;-77